sensor_id;sensor_type;location;lat;lon;timestamp;P1;durP1;ratioP1;P2;durP2;ratioP2
23159;SDS011;11748;50.844;4.396;2024-03-23T00:53:44;14.00;;;4.40;;
23159;SDS011;11748;50.844;4.396;2024-03-23T00:56:10;16.98;;;4.22;;
23159;SDS011;11748;50.844;4.396;2024-03-23T00:58:36;13.35;;;4.60;;
23159;SDS011;11748;50.844;4.396;2024-03-23T01:01:01;14.38;;;4.18;;
23159;SDS011;11748;50.844;4.396;2024-03-23T01:03:29;16.23;;;4.40;;
23159;SDS011;11748;50.844;4.396;2024-03-23T01:05:58;15.63;;;4.28;;
23159;SDS011;11748;50.844;4.396;2024-03-23T01:08:28;13.35;;;4.30;;
23159;SDS011;11748;50.844;4.396;2024-03-23T01:11:03;17.20;;;3.88;;
23159;SDS011;11748;50.844;4.396;2024-03-23T01:15:55;12.88;;;4.45;;
23159;SDS011;11748;50.844;4.396;2024-03-23T01:18:21;15.15;;;5.43;;
23159;SDS011;11748;50.844;4.396;2024-03-23T01:20:48;14.00;;;3.60;;
23159;SDS011;11748;50.844;4.396;2024-03-23T01:23:14;21.23;;;5.10;;
23159;SDS011;11748;50.844;4.396;2024-03-23T01:25:40;15.43;;;4.50;;
23159;SDS011;11748;50.844;4.396;2024-03-23T01:28:06;16.48;;;4.20;;
23159;SDS011;11748;50.844;4.396;2024-03-23T01:30:33;18.60;;;3.97;;
23159;SDS011;11748;50.844;4.396;2024-03-23T01:33:01;12.98;;;4.22;;
23159;SDS011;11748;50.844;4.396;2024-03-23T01:35:27;16.63;;;4.95;;
23159;SDS011;11748;50.844;4.396;2024-03-23T01:37:53;16.00;;;4.55;;
23159;SDS011;11748;50.844;4.396;2024-03-23T01:40:20;13.00;;;5.28;;
23159;SDS011;11748;50.844;4.396;2024-03-23T01:42:58;17.73;;;5.93;;
23159;SDS011;11748;50.844;4.396;2024-03-23T01:45:28;16.90;;;6.57;;
23159;SDS011;11748;50.844;4.396;2024-03-23T01:47:55;15.00;;;6.30;;
23159;SDS011;11748;50.844;4.396;2024-03-23T01:50:20;16.20;;;6.63;;
23159;SDS011;11748;50.844;4.396;2024-03-23T01:52:47;15.98;;;6.38;;
23159;SDS011;11748;50.844;4.396;2024-03-23T01:55:13;17.65;;;7.22;;
23159;SDS011;11748;50.844;4.396;2024-03-23T01:57:39;16.65;;;8.15;;
23159;SDS011;11748;50.844;4.396;2024-03-23T02:00:05;21.50;;;7.43;;
23159;SDS011;11748;50.844;4.396;2024-03-23T02:02:32;21.00;;;8.40;;
23159;SDS011;11748;50.844;4.396;2024-03-23T02:04:57;18.25;;;7.63;;
23159;SDS011;11748;50.844;4.396;2024-03-23T02:07:24;16.25;;;7.57;;
23159;SDS011;11748;50.844;4.396;2024-03-23T02:09:50;19.65;;;7.68;;
23159;SDS011;11748;50.844;4.396;2024-03-23T02:12:17;20.45;;;8.40;;
23159;SDS011;11748;50.844;4.396;2024-03-23T02:14:43;20.23;;;8.10;;
23159;SDS011;11748;50.844;4.396;2024-03-23T02:17:09;21.85;;;8.20;;
23159;SDS011;11748;50.844;4.396;2024-03-23T02:19:34;18.58;;;8.30;;
23159;SDS011;11748;50.844;4.396;2024-03-23T02:22:01;17.52;;;8.02;;
23159;SDS011;11748;50.844;4.396;2024-03-23T02:24:29;21.02;;;8.00;;
23159;SDS011;11748;50.844;4.396;2024-03-23T02:26:54;20.50;;;8.57;;
23159;SDS011;11748;50.844;4.396;2024-03-23T02:29:20;24.13;;;8.73;;
23159;SDS011;11748;50.844;4.396;2024-03-23T02:31:46;24.17;;;9.50;;
23159;SDS011;11748;50.844;4.396;2024-03-23T02:34:11;23.05;;;9.05;;
23159;SDS011;11748;50.844;4.396;2024-03-23T02:36:38;19.65;;;8.43;;
23159;SDS011;11748;50.844;4.396;2024-03-23T02:39:04;18.48;;;8.55;;
23159;SDS011;11748;50.844;4.396;2024-03-23T02:41:30;16.05;;;9.02;;
23159;SDS011;11748;50.844;4.396;2024-03-23T02:43:55;22.05;;;9.63;;
23159;SDS011;11748;50.844;4.396;2024-03-23T02:46:21;17.25;;;9.13;;
23159;SDS011;11748;50.844;4.396;2024-03-23T02:48:50;21.73;;;8.60;;
23159;SDS011;11748;50.844;4.396;2024-03-23T02:51:15;19.38;;;8.55;;
23159;SDS011;11748;50.844;4.396;2024-03-23T02:53:41;25.73;;;9.23;;
23159;SDS011;11748;50.844;4.396;2024-03-23T02:56:07;23.08;;;8.93;;
23159;SDS011;11748;50.844;4.396;2024-03-23T02:58:33;23.20;;;9.48;;
23159;SDS011;11748;50.844;4.396;2024-03-23T03:00:59;23.50;;;8.55;;
23159;SDS011;11748;50.844;4.396;2024-03-23T03:03:24;19.33;;;8.75;;
23159;SDS011;11748;50.844;4.396;2024-03-23T03:05:56;23.55;;;9.07;;
23159;SDS011;11748;50.844;4.396;2024-03-23T03:08:22;23.92;;;8.88;;
23159;SDS011;11748;50.844;4.396;2024-03-23T03:10:48;21.35;;;8.82;;
23159;SDS011;11748;50.844;4.396;2024-03-23T03:13:14;17.80;;;8.32;;
23159;SDS011;11748;50.844;4.396;2024-03-23T03:15:44;27.38;;;9.50;;
23159;SDS011;11748;50.844;4.396;2024-03-23T03:18:10;27.27;;;9.05;;
23159;SDS011;11748;50.844;4.396;2024-03-23T03:20:39;29.08;;;9.57;;
23159;SDS011;11748;50.844;4.396;2024-03-23T03:23:05;25.50;;;9.07;;
23159;SDS011;11748;50.844;4.396;2024-03-23T03:25:31;22.85;;;9.43;;
23159;SDS011;11748;50.844;4.396;2024-03-23T03:27:57;22.13;;;9.43;;
23159;SDS011;11748;50.844;4.396;2024-03-23T03:30:23;23.55;;;9.00;;
23159;SDS011;11748;50.844;4.396;2024-03-23T03:32:51;23.17;;;8.57;;
23159;SDS011;11748;50.844;4.396;2024-03-23T03:35:20;24.83;;;9.40;;
23159;SDS011;11748;50.844;4.396;2024-03-23T03:37:45;23.75;;;8.73;;
23159;SDS011;11748;50.844;4.396;2024-03-23T03:40:11;20.05;;;8.45;;
23159;SDS011;11748;50.844;4.396;2024-03-23T03:42:40;23.13;;;8.70;;
23159;SDS011;11748;50.844;4.396;2024-03-23T03:45:06;19.42;;;8.88;;
23159;SDS011;11748;50.844;4.396;2024-03-23T03:47:32;16.13;;;7.30;;
23159;SDS011;11748;50.844;4.396;2024-03-23T03:49:58;17.67;;;8.00;;
23159;SDS011;11748;50.844;4.396;2024-03-23T03:52:24;20.90;;;8.07;;
23159;SDS011;11748;50.844;4.396;2024-03-23T03:54:50;17.17;;;8.50;;
23159;SDS011;11748;50.844;4.396;2024-03-23T03:57:16;20.25;;;9.30;;
23159;SDS011;11748;50.844;4.396;2024-03-23T03:59:42;23.00;;;8.73;;
23159;SDS011;11748;50.844;4.396;2024-03-23T04:02:07;21.65;;;9.98;;
23159;SDS011;11748;50.844;4.396;2024-03-23T04:04:33;24.23;;;9.52;;
23159;SDS011;11748;50.844;4.396;2024-03-23T04:07:02;17.98;;;8.77;;
23159;SDS011;11748;50.844;4.396;2024-03-23T04:09:27;25.00;;;9.70;;
23159;SDS011;11748;50.844;4.396;2024-03-23T04:11:53;23.20;;;8.77;;
23159;SDS011;11748;50.844;4.396;2024-03-23T04:14:19;21.90;;;8.80;;
23159;SDS011;11748;50.844;4.396;2024-03-23T04:16:45;23.00;;;8.60;;
23159;SDS011;11748;50.844;4.396;2024-03-23T04:19:11;16.70;;;8.32;;
23159;SDS011;11748;50.844;4.396;2024-03-23T04:21:40;19.67;;;8.35;;
23159;SDS011;11748;50.844;4.396;2024-03-23T04:24:06;22.50;;;8.30;;
23159;SDS011;11748;50.844;4.396;2024-03-23T04:26:42;19.05;;;7.78;;
23159;SDS011;11748;50.844;4.396;2024-03-23T04:29:08;24.65;;;8.88;;
23159;SDS011;11748;50.844;4.396;2024-03-23T04:31:34;18.58;;;8.50;;
23159;SDS011;11748;50.844;4.396;2024-03-23T04:34:00;19.77;;;8.60;;
23159;SDS011;11748;50.844;4.396;2024-03-23T04:36:26;23.30;;;8.48;;
23159;SDS011;11748;50.844;4.396;2024-03-23T04:38:52;17.58;;;7.03;;
23159;SDS011;11748;50.844;4.396;2024-03-23T04:41:18;20.77;;;6.68;;
23159;SDS011;11748;50.844;4.396;2024-03-23T04:43:43;16.73;;;6.50;;
23159;SDS011;11748;50.844;4.396;2024-03-23T04:46:09;17.70;;;6.32;;
23159;SDS011;11748;50.844;4.396;2024-03-23T04:48:35;14.73;;;6.32;;
23159;SDS011;11748;50.844;4.396;2024-03-23T04:51:01;14.98;;;5.57;;
23159;SDS011;11748;50.844;4.396;2024-03-23T04:53:27;19.20;;;5.68;;
23159;SDS011;11748;50.844;4.396;2024-03-23T04:55:56;19.65;;;6.50;;
23159;SDS011;11748;50.844;4.396;2024-03-23T04:58:24;18.48;;;5.95;;
23159;SDS011;11748;50.844;4.396;2024-03-23T05:00:54;17.75;;;7.10;;
23159;SDS011;11748;50.844;4.396;2024-03-23T05:03:20;15.38;;;6.90;;
23159;SDS011;11748;50.844;4.396;2024-03-23T05:05:46;15.60;;;6.78;;
23159;SDS011;11748;50.844;4.396;2024-03-23T05:08:15;16.67;;;6.03;;
23159;SDS011;11748;50.844;4.396;2024-03-23T05:10:41;17.45;;;6.82;;
23159;SDS011;11748;50.844;4.396;2024-03-23T05:13:07;19.27;;;6.53;;
23159;SDS011;11748;50.844;4.396;2024-03-23T05:15:33;17.33;;;5.97;;
23159;SDS011;11748;50.844;4.396;2024-03-23T05:18:00;15.88;;;6.88;;
23159;SDS011;11748;50.844;4.396;2024-03-23T05:20:26;16.63;;;7.35;;
23159;SDS011;11748;50.844;4.396;2024-03-23T05:22:52;14.68;;;7.20;;
23159;SDS011;11748;50.844;4.396;2024-03-23T05:25:18;17.10;;;6.43;;
23159;SDS011;11748;50.844;4.396;2024-03-23T05:27:43;17.88;;;7.53;;
23159;SDS011;11748;50.844;4.396;2024-03-23T05:30:09;15.60;;;6.53;;
23159;SDS011;11748;50.844;4.396;2024-03-23T05:32:36;18.42;;;6.28;;
23159;SDS011;11748;50.844;4.396;2024-03-23T05:35:01;13.60;;;6.03;;
23159;SDS011;11748;50.844;4.396;2024-03-23T05:37:27;13.20;;;5.60;;
23159;SDS011;11748;50.844;4.396;2024-03-23T05:39:53;15.60;;;6.40;;
23159;SDS011;11748;50.844;4.396;2024-03-23T05:42:19;13.73;;;5.63;;
23159;SDS011;11748;50.844;4.396;2024-03-23T05:44:44;15.18;;;5.20;;
23159;SDS011;11748;50.844;4.396;2024-03-23T05:47:10;16.55;;;5.60;;
23159;SDS011;11748;50.844;4.396;2024-03-23T05:49:39;21.48;;;5.72;;
23159;SDS011;11748;50.844;4.396;2024-03-23T05:52:07;12.90;;;5.18;;
23159;SDS011;11748;50.844;4.396;2024-03-23T05:54:33;15.65;;;4.88;;
23159;SDS011;11748;50.844;4.396;2024-03-23T05:56:59;12.48;;;4.20;;
23159;SDS011;11748;50.844;4.396;2024-03-23T05:59:25;12.27;;;4.60;;
23159;SDS011;11748;50.844;4.396;2024-03-23T06:01:52;11.48;;;3.63;;
23159;SDS011;11748;50.844;4.396;2024-03-23T06:04:18;19.33;;;4.20;;
23159;SDS011;11748;50.844;4.396;2024-03-23T06:06:45;12.02;;;4.15;;
23159;SDS011;11748;50.844;4.396;2024-03-23T06:09:11;13.55;;;3.65;;
23159;SDS011;11748;50.844;4.396;2024-03-23T06:11:36;14.00;;;3.38;;
23159;SDS011;11748;50.844;4.396;2024-03-23T06:14:02;11.10;;;3.47;;
23159;SDS011;11748;50.844;4.396;2024-03-23T06:16:28;17.40;;;2.97;;
23159;SDS011;11748;50.844;4.396;2024-03-23T06:18:55;12.77;;;3.13;;
23159;SDS011;11748;50.844;4.396;2024-03-23T06:21:21;18.48;;;3.33;;
23159;SDS011;11748;50.844;4.396;2024-03-23T06:23:50;13.32;;;2.90;;
23159;SDS011;11748;50.844;4.396;2024-03-23T06:26:18;12.70;;;2.80;;
23159;SDS011;11748;50.844;4.396;2024-03-23T06:28:47;9.45;;;2.67;;
23159;SDS011;11748;50.844;4.396;2024-03-23T06:31:12;13.93;;;2.90;;
23159;SDS011;11748;50.844;4.396;2024-03-23T06:33:38;11.93;;;3.47;;
23159;SDS011;11748;50.844;4.396;2024-03-23T06:36:05;12.57;;;3.05;;
23159;SDS011;11748;50.844;4.396;2024-03-23T06:38:31;11.05;;;2.53;;
23159;SDS011;11748;50.844;4.396;2024-03-23T06:40:57;13.90;;;2.53;;
23159;SDS011;11748;50.844;4.396;2024-03-23T06:43:23;18.52;;;2.97;;
23159;SDS011;11748;50.844;4.396;2024-03-23T06:45:52;13.65;;;3.03;;
23159;SDS011;11748;50.844;4.396;2024-03-23T06:48:18;12.77;;;3.17;;
23159;SDS011;11748;50.844;4.396;2024-03-23T06:50:45;11.73;;;2.80;;
23159;SDS011;11748;50.844;4.396;2024-03-23T06:53:11;12.70;;;3.00;;
23159;SDS011;11748;50.844;4.396;2024-03-23T06:55:38;8.93;;;2.72;;
23159;SDS011;11748;50.844;4.396;2024-03-23T06:58:03;13.18;;;3.03;;
23159;SDS011;11748;50.844;4.396;2024-03-23T07:00:31;15.55;;;3.40;;
23159;SDS011;11748;50.844;4.396;2024-03-23T07:03:03;11.45;;;2.90;;
23159;SDS011;11748;50.844;4.396;2024-03-23T07:05:29;16.27;;;3.50;;
23159;SDS011;11748;50.844;4.396;2024-03-23T07:07:54;11.27;;;3.13;;
23159;SDS011;11748;50.844;4.396;2024-03-23T07:10:20;10.25;;;2.67;;
23159;SDS011;11748;50.844;4.396;2024-03-23T07:12:45;8.55;;;2.30;;
23159;SDS011;11748;50.844;4.396;2024-03-23T07:15:11;8.48;;;2.22;;
23159;SDS011;11748;50.844;4.396;2024-03-23T07:17:37;6.40;;;1.90;;
23159;SDS011;11748;50.844;4.396;2024-03-23T07:20:04;10.00;;;2.42;;
23159;SDS011;11748;50.844;4.396;2024-03-23T07:22:30;13.25;;;2.70;;
23159;SDS011;11748;50.844;4.396;2024-03-23T07:24:56;9.25;;;2.53;;
23159;SDS011;11748;50.844;4.396;2024-03-23T07:27:24;8.60;;;2.80;;
23159;SDS011;11748;50.844;4.396;2024-03-23T07:29:51;12.40;;;2.97;;
23159;SDS011;11748;50.844;4.396;2024-03-23T07:32:16;12.70;;;3.28;;
23159;SDS011;11748;50.844;4.396;2024-03-23T07:34:42;12.20;;;3.38;;
23159;SDS011;11748;50.844;4.396;2024-03-23T07:37:09;13.93;;;3.88;;
23159;SDS011;11748;50.844;4.396;2024-03-23T07:39:35;15.52;;;3.78;;
23159;SDS011;11748;50.844;4.396;2024-03-23T07:42:01;12.55;;;3.65;;
23159;SDS011;11748;50.844;4.396;2024-03-23T07:44:27;20.17;;;3.88;;
23159;SDS011;11748;50.844;4.396;2024-03-23T07:46:53;17.88;;;3.97;;
23159;SDS011;11748;50.844;4.396;2024-03-23T07:49:19;17.50;;;3.50;;
23159;SDS011;11748;50.844;4.396;2024-03-23T07:51:44;15.73;;;3.30;;
23159;SDS011;11748;50.844;4.396;2024-03-23T07:54:10;13.32;;;3.90;;
23159;SDS011;11748;50.844;4.396;2024-03-23T07:56:36;15.90;;;3.88;;
23159;SDS011;11748;50.844;4.396;2024-03-23T07:59:02;22.20;;;4.07;;
23159;SDS011;11748;50.844;4.396;2024-03-23T08:01:28;22.65;;;4.00;;
23159;SDS011;11748;50.844;4.396;2024-03-23T08:03:54;14.68;;;3.75;;
23159;SDS011;11748;50.844;4.396;2024-03-23T08:06:20;13.15;;;3.65;;
23159;SDS011;11748;50.844;4.396;2024-03-23T08:08:48;10.90;;;3.53;;
23159;SDS011;11748;50.844;4.396;2024-03-23T08:11:15;16.33;;;3.22;;
23159;SDS011;11748;50.844;4.396;2024-03-23T08:13:41;14.30;;;4.07;;
23159;SDS011;11748;50.844;4.396;2024-03-23T08:16:09;10.02;;;3.05;;
23159;SDS011;11748;50.844;4.396;2024-03-23T08:18:35;12.95;;;3.03;;
23159;SDS011;11748;50.844;4.396;2024-03-23T08:21:02;16.23;;;3.33;;
23159;SDS011;11748;50.844;4.396;2024-03-23T08:23:33;13.55;;;4.32;;
23159;SDS011;11748;50.844;4.396;2024-03-23T08:26:01;12.68;;;4.20;;
23159;SDS011;11748;50.844;4.396;2024-03-23T08:28:38;13.00;;;4.03;;
23159;SDS011;11748;50.844;4.396;2024-03-23T08:31:06;18.48;;;3.60;;
23159;SDS011;11748;50.844;4.396;2024-03-23T08:33:34;11.55;;;3.22;;
23159;SDS011;11748;50.844;4.396;2024-03-23T08:36:00;16.27;;;3.15;;
23159;SDS011;11748;50.844;4.396;2024-03-23T08:38:28;19.02;;;3.58;;
23159;SDS011;11748;50.844;4.396;2024-03-23T08:40:57;11.32;;;3.38;;
23159;SDS011;11748;50.844;4.396;2024-03-23T08:43:23;13.23;;;3.35;;
23159;SDS011;11748;50.844;4.396;2024-03-23T08:45:49;10.98;;;2.90;;
23159;SDS011;11748;50.844;4.396;2024-03-23T08:48:15;11.10;;;2.30;;
23159;SDS011;11748;50.844;4.396;2024-03-23T08:50:41;11.68;;;2.90;;
23159;SDS011;11748;50.844;4.396;2024-03-23T08:53:07;11.07;;;2.60;;
23159;SDS011;11748;50.844;4.396;2024-03-23T08:55:33;9.77;;;2.72;;
23159;SDS011;11748;50.844;4.396;2024-03-23T08:57:59;7.75;;;2.20;;
23159;SDS011;11748;50.844;4.396;2024-03-23T09:00:25;11.90;;;2.83;;
23159;SDS011;11748;50.844;4.396;2024-03-23T09:02:51;7.07;;;2.38;;
23159;SDS011;11748;50.844;4.396;2024-03-23T09:05:18;8.43;;;2.47;;
23159;SDS011;11748;50.844;4.396;2024-03-23T09:07:43;6.07;;;2.00;;
23159;SDS011;11748;50.844;4.396;2024-03-23T09:10:10;9.40;;;2.80;;
23159;SDS011;11748;50.844;4.396;2024-03-23T09:12:36;9.43;;;2.72;;
23159;SDS011;11748;50.844;4.396;2024-03-23T09:15:01;11.50;;;3.03;;
23159;SDS011;11748;50.844;4.396;2024-03-23T09:17:28;8.13;;;2.38;;
23159;SDS011;11748;50.844;4.396;2024-03-23T09:19:54;9.25;;;2.10;;
23159;SDS011;11748;50.844;4.396;2024-03-23T09:22:19;10.02;;;2.47;;
23159;SDS011;11748;50.844;4.396;2024-03-23T09:24:45;7.97;;;2.35;;
23159;SDS011;11748;50.844;4.396;2024-03-23T09:27:11;7.22;;;2.10;;
23159;SDS011;11748;50.844;4.396;2024-03-23T09:29:36;6.78;;;2.53;;
23159;SDS011;11748;50.844;4.396;2024-03-23T09:32:02;11.23;;;2.72;;
23159;SDS011;11748;50.844;4.396;2024-03-23T09:34:29;9.95;;;2.70;;
23159;SDS011;11748;50.844;4.396;2024-03-23T09:36:55;11.35;;;2.47;;
23159;SDS011;11748;50.844;4.396;2024-03-23T09:39:20;11.82;;;2.80;;
23159;SDS011;11748;50.844;4.396;2024-03-23T09:41:46;7.20;;;2.20;;
23159;SDS011;11748;50.844;4.396;2024-03-23T09:44:12;9.13;;;2.55;;
23159;SDS011;11748;50.844;4.396;2024-03-23T09:46:38;8.82;;;2.45;;
23159;SDS011;11748;50.844;4.396;2024-03-23T09:49:05;6.60;;;2.65;;
23159;SDS011;11748;50.844;4.396;2024-03-23T09:51:34;7.70;;;2.20;;
23159;SDS011;11748;50.844;4.396;2024-03-23T09:54:01;8.02;;;2.72;;
23159;SDS011;11748;50.844;4.396;2024-03-23T09:56:27;6.15;;;2.42;;
23159;SDS011;11748;50.844;4.396;2024-03-23T09:58:59;9.15;;;3.00;;
23159;SDS011;11748;50.844;4.396;2024-03-23T10:01:26;8.25;;;2.20;;
23159;SDS011;11748;50.844;4.396;2024-03-23T10:03:52;9.50;;;3.20;;
23159;SDS011;11748;50.844;4.396;2024-03-23T10:06:17;9.05;;;2.70;;
23159;SDS011;11748;50.844;4.396;2024-03-23T10:08:47;4.00;;;2.22;;
23159;SDS011;11748;50.844;4.396;2024-03-23T10:11:14;7.05;;;2.42;;
23159;SDS011;11748;50.844;4.396;2024-03-23T10:13:41;6.72;;;2.53;;
23159;SDS011;11748;50.844;4.396;2024-03-23T10:16:08;6.70;;;2.53;;
23159;SDS011;11748;50.844;4.396;2024-03-23T10:18:38;7.82;;;2.10;;
23159;SDS011;11748;50.844;4.396;2024-03-23T10:23:31;8.82;;;2.55;;
23159;SDS011;11748;50.844;4.396;2024-03-23T10:26:19;6.70;;;1.73;;
23159;SDS011;11748;50.844;4.396;2024-03-23T10:31:25;5.80;;;2.20;;
23159;SDS011;11748;50.844;4.396;2024-03-23T10:33:52;6.70;;;2.00;;
23159;SDS011;11748;50.844;4.396;2024-03-23T10:36:21;9.63;;;2.20;;
23159;SDS011;11748;50.844;4.396;2024-03-23T10:38:51;10.95;;;2.42;;
23159;SDS011;11748;50.844;4.396;2024-03-23T10:41:18;7.75;;;1.77;;
23159;SDS011;11748;50.844;4.396;2024-03-23T10:43:47;8.80;;;2.50;;
23159;SDS011;11748;50.844;4.396;2024-03-23T10:49:48;6.15;;;1.52;;
23159;SDS011;11748;50.844;4.396;2024-03-23T10:52:15;5.20;;;1.50;;
23159;SDS011;11748;50.844;4.396;2024-03-23T10:54:40;9.52;;;2.08;;
23159;SDS011;11748;50.844;4.396;2024-03-23T10:57:11;8.40;;;1.92;;
23159;SDS011;11748;50.844;4.396;2024-03-23T10:59:42;6.80;;;1.80;;
23159;SDS011;11748;50.844;4.396;2024-03-23T11:02:18;4.15;;;1.58;;
23159;SDS011;11748;50.844;4.396;2024-03-23T11:04:45;5.47;;;1.42;;
23159;SDS011;11748;50.844;4.396;2024-03-23T11:09:45;9.30;;;2.45;;
23159;SDS011;11748;50.844;4.396;2024-03-23T11:14:43;6.18;;;1.20;;
23159;SDS011;11748;50.844;4.396;2024-03-23T11:17:10;3.83;;;1.15;;
23159;SDS011;11748;50.844;4.396;2024-03-23T11:19:38;7.20;;;1.70;;
23159;SDS011;11748;50.844;4.396;2024-03-23T11:22:05;3.88;;;1.10;;
23159;SDS011;11748;50.844;4.396;2024-03-23T11:24:34;5.03;;;1.33;;
23159;SDS011;11748;50.844;4.396;2024-03-23T11:27:00;6.13;;;1.40;;
23159;SDS011;11748;50.844;4.396;2024-03-23T11:29:29;5.75;;;1.20;;
23159;SDS011;11748;50.844;4.396;2024-03-23T11:31:55;4.13;;;1.25;;
23159;SDS011;11748;50.844;4.396;2024-03-23T11:34:21;2.65;;;1.10;;
23159;SDS011;11748;50.844;4.396;2024-03-23T11:36:47;2.78;;;1.20;;
23159;SDS011;11748;50.844;4.396;2024-03-23T11:39:16;6.28;;;1.58;;
23159;SDS011;11748;50.844;4.396;2024-03-23T11:41:49;7.15;;;1.60;;
23159;SDS011;11748;50.844;4.396;2024-03-23T11:44:23;6.78;;;1.45;;
23159;SDS011;11748;50.844;4.396;2024-03-23T11:46:51;4.45;;;1.50;;
23159;SDS011;11748;50.844;4.396;2024-03-23T11:49:26;3.70;;;1.17;;
23159;SDS011;11748;50.844;4.396;2024-03-23T11:51:53;4.68;;;1.00;;
23159;SDS011;11748;50.844;4.396;2024-03-23T11:54:21;6.45;;;1.23;;
23159;SDS011;11748;50.844;4.396;2024-03-23T11:57:01;6.63;;;1.17;;
23159;SDS011;11748;50.844;4.396;2024-03-23T11:59:40;5.65;;;1.10;;
23159;SDS011;11748;50.844;4.396;2024-03-23T12:04:32;5.05;;;1.70;;
23159;SDS011;11748;50.844;4.396;2024-03-23T12:10:04;5.30;;;1.25;;
23159;SDS011;11748;50.844;4.396;2024-03-23T12:12:33;7.95;;;1.73;;
23159;SDS011;11748;50.844;4.396;2024-03-23T12:15:03;5.75;;;1.70;;
23159;SDS011;11748;50.844;4.396;2024-03-23T12:17:33;4.43;;;1.00;;
23159;SDS011;11748;50.844;4.396;2024-03-23T12:20:02;4.95;;;1.10;;
23159;SDS011;11748;50.844;4.396;2024-03-23T12:22:29;7.15;;;1.40;;
23159;SDS011;11748;50.844;4.396;2024-03-23T12:24:55;4.15;;;1.30;;
23159;SDS011;11748;50.844;4.396;2024-03-23T12:27:21;9.02;;;1.30;;
23159;SDS011;11748;50.844;4.396;2024-03-23T12:29:47;4.22;;;0.88;;
23159;SDS011;11748;50.844;4.396;2024-03-23T12:32:13;3.78;;;0.88;;
23159;SDS011;11748;50.844;4.396;2024-03-23T12:34:40;4.25;;;0.80;;
23159;SDS011;11748;50.844;4.396;2024-03-23T12:37:07;4.43;;;1.13;;
23159;SDS011;11748;50.844;4.396;2024-03-23T12:39:34;7.82;;;1.20;;
23159;SDS011;11748;50.844;4.396;2024-03-23T12:42:01;7.07;;;1.40;;
23159;SDS011;11748;50.844;4.396;2024-03-23T12:44:30;6.20;;;1.38;;
23159;SDS011;11748;50.844;4.396;2024-03-23T12:46:55;5.10;;;1.20;;
23159;SDS011;11748;50.844;4.396;2024-03-23T12:49:21;5.05;;;1.20;;
23159;SDS011;11748;50.844;4.396;2024-03-23T12:51:54;9.82;;;1.77;;
23159;SDS011;11748;50.844;4.396;2024-03-23T12:54:21;5.15;;;1.38;;
23159;SDS011;11748;50.844;4.396;2024-03-23T12:56:47;6.82;;;1.05;;
23159;SDS011;11748;50.844;4.396;2024-03-23T12:59:13;7.47;;;1.40;;
23159;SDS011;11748;50.844;4.396;2024-03-23T13:01:39;4.72;;;1.15;;
23159;SDS011;11748;50.844;4.396;2024-03-23T13:04:05;7.63;;;1.33;;
23159;SDS011;11748;50.844;4.396;2024-03-23T13:06:31;5.10;;;1.33;;
23159;SDS011;11748;50.844;4.396;2024-03-23T13:09:00;4.68;;;1.13;;
23159;SDS011;11748;50.844;4.396;2024-03-23T13:11:26;3.80;;;0.80;;
23159;SDS011;11748;50.844;4.396;2024-03-23T13:13:53;3.92;;;1.05;;
23159;SDS011;11748;50.844;4.396;2024-03-23T13:16:19;5.40;;;0.93;;
23159;SDS011;11748;50.844;4.396;2024-03-23T13:18:44;8.20;;;1.30;;
23159;SDS011;11748;50.844;4.396;2024-03-23T13:21:10;3.83;;;1.08;;
23159;SDS011;11748;50.844;4.396;2024-03-23T13:23:35;4.70;;;1.38;;
23159;SDS011;11748;50.844;4.396;2024-03-23T13:26:03;6.63;;;1.30;;
23159;SDS011;11748;50.844;4.396;2024-03-23T13:28:28;7.97;;;1.00;;
23159;SDS011;11748;50.844;4.396;2024-03-23T13:30:55;4.00;;;1.00;;
23159;SDS011;11748;50.844;4.396;2024-03-23T13:33:22;4.47;;;1.10;;
23159;SDS011;11748;50.844;4.396;2024-03-23T13:35:51;4.90;;;1.00;;
23159;SDS011;11748;50.844;4.396;2024-03-23T13:38:18;5.38;;;1.23;;
23159;SDS011;11748;50.844;4.396;2024-03-23T13:40:51;5.72;;;1.08;;
23159;SDS011;11748;50.844;4.396;2024-03-23T13:43:24;5.40;;;1.45;;
23159;SDS011;11748;50.844;4.396;2024-03-23T13:45:54;6.97;;;1.30;;
23159;SDS011;11748;50.844;4.396;2024-03-23T13:48:21;3.83;;;1.33;;
23159;SDS011;11748;50.844;4.396;2024-03-23T13:50:56;5.47;;;1.10;;
23159;SDS011;11748;50.844;4.396;2024-03-23T13:53:22;7.85;;;1.42;;
23159;SDS011;11748;50.844;4.396;2024-03-23T13:55:49;4.65;;;1.10;;
23159;SDS011;11748;50.844;4.396;2024-03-23T13:58:15;6.28;;;1.27;;
23159;SDS011;11748;50.844;4.396;2024-03-23T14:00:41;4.70;;;0.90;;
23159;SDS011;11748;50.844;4.396;2024-03-23T14:03:11;3.65;;;1.10;;
23159;SDS011;11748;50.844;4.396;2024-03-23T14:05:37;5.20;;;1.20;;
23159;SDS011;11748;50.844;4.396;2024-03-23T14:08:07;5.68;;;1.05;;
23159;SDS011;11748;50.844;4.396;2024-03-23T14:10:34;3.67;;;1.00;;
23159;SDS011;11748;50.844;4.396;2024-03-23T14:13:01;4.20;;;1.00;;
23159;SDS011;11748;50.844;4.396;2024-03-23T14:15:27;6.60;;;1.65;;
23159;SDS011;11748;50.844;4.396;2024-03-23T14:17:53;8.90;;;1.30;;
23159;SDS011;11748;50.844;4.396;2024-03-23T14:20:20;5.88;;;1.30;;
23159;SDS011;11748;50.844;4.396;2024-03-23T14:22:46;7.00;;;1.13;;
23159;SDS011;11748;50.844;4.396;2024-03-23T14:25:13;5.93;;;1.17;;
23159;SDS011;11748;50.844;4.396;2024-03-23T14:27:38;4.63;;;1.10;;
23159;SDS011;11748;50.844;4.396;2024-03-23T14:30:04;4.95;;;1.30;;
23159;SDS011;11748;50.844;4.396;2024-03-23T14:32:31;4.05;;;1.35;;
23159;SDS011;11748;50.844;4.396;2024-03-23T14:35:02;6.65;;;1.30;;
23159;SDS011;11748;50.844;4.396;2024-03-23T14:37:36;6.13;;;1.27;;
23159;SDS011;11748;50.844;4.396;2024-03-23T14:40:03;6.40;;;1.55;;
23159;SDS011;11748;50.844;4.396;2024-03-23T14:42:29;4.45;;;1.27;;
23159;SDS011;11748;50.844;4.396;2024-03-23T14:44:57;8.07;;;1.42;;
23159;SDS011;11748;50.844;4.396;2024-03-23T14:47:23;5.60;;;1.45;;
23159;SDS011;11748;50.844;4.396;2024-03-23T14:49:49;5.82;;;0.90;;
23159;SDS011;11748;50.844;4.396;2024-03-23T14:52:18;6.13;;;1.38;;
23159;SDS011;11748;50.844;4.396;2024-03-23T14:54:44;5.38;;;1.27;;
23159;SDS011;11748;50.844;4.396;2024-03-23T14:57:11;6.03;;;1.30;;
23159;SDS011;11748;50.844;4.396;2024-03-23T14:59:37;3.92;;;1.10;;
23159;SDS011;11748;50.844;4.396;2024-03-23T15:02:03;4.25;;;1.20;;
23159;SDS011;11748;50.844;4.396;2024-03-23T15:04:29;5.93;;;1.58;;
23159;SDS011;11748;50.844;4.396;2024-03-23T15:06:55;4.30;;;1.25;;
23159;SDS011;11748;50.844;4.396;2024-03-23T15:09:21;4.57;;;1.00;;
23159;SDS011;11748;50.844;4.396;2024-03-23T15:11:46;4.75;;;1.02;;
23159;SDS011;11748;50.844;4.396;2024-03-23T15:14:12;6.07;;;1.50;;
23159;SDS011;11748;50.844;4.396;2024-03-23T15:16:38;5.68;;;1.83;;
23159;SDS011;11748;50.844;4.396;2024-03-23T15:19:03;5.05;;;1.50;;
23159;SDS011;11748;50.844;4.396;2024-03-23T15:21:31;5.18;;;1.13;;
23159;SDS011;11748;50.844;4.396;2024-03-23T15:23:57;6.15;;;1.30;;
23159;SDS011;11748;50.844;4.396;2024-03-23T15:26:23;5.75;;;1.90;;
23159;SDS011;11748;50.844;4.396;2024-03-23T15:28:49;5.63;;;1.38;;
23159;SDS011;11748;50.844;4.396;2024-03-23T15:31:24;7.43;;;0.98;;
23159;SDS011;11748;50.844;4.396;2024-03-23T15:33:50;3.53;;;1.05;;
23159;SDS011;11748;50.844;4.396;2024-03-23T15:36:18;6.25;;;1.45;;
23159;SDS011;11748;50.844;4.396;2024-03-23T15:38:44;9.23;;;1.77;;
23159;SDS011;11748;50.844;4.396;2024-03-23T15:41:10;5.20;;;1.10;;
23159;SDS011;11748;50.844;4.396;2024-03-23T15:43:36;7.10;;;1.33;;
23159;SDS011;11748;50.844;4.396;2024-03-23T15:46:03;7.90;;;1.95;;
23159;SDS011;11748;50.844;4.396;2024-03-23T15:48:31;4.57;;;1.60;;
23159;SDS011;11748;50.844;4.396;2024-03-23T15:50:58;5.63;;;1.10;;
23159;SDS011;11748;50.844;4.396;2024-03-23T15:53:26;5.10;;;1.10;;